createdAt,value
2023-12-09T00:01:43.334Z,99686.22
2023-12-09T00:04:11.838Z,99683.25
2023-12-09T00:06:44.148Z,99682.53
2023-12-09T00:09:14.221Z,99682.84
2023-12-09T00:11:43.889Z,99690.81
2023-12-09T00:14:12.224Z,99688.22
2023-12-09T00:16:42.299Z,99685.91
2023-12-09T00:19:15.208Z,99683.06
2023-12-09T00:21:43.489Z,99684.75
2023-12-09T00:24:11.833Z,99688.31
2023-12-09T00:26:40.187Z,99686.13
2023-12-09T00:29:09.962Z,99692.88
2023-12-09T00:31:39.389Z,99703.00
2023-12-09T00:34:08.072Z,99692.56
2023-12-09T00:36:36.550Z,99702.69
2023-12-09T00:39:04.847Z,99703.78
2023-12-09T00:41:33.122Z,99707.56
2023-12-09T00:44:10.466Z,99708.06
2023-12-09T00:46:49.615Z,99711.56
2023-12-09T00:49:18.111Z,99709.16
2023-12-09T00:51:46.414Z,99712.72
2023-12-09T00:54:14.735Z,99711.72
2023-12-09T00:56:43.146Z,99711.53
2023-12-09T00:59:11.437Z,99713.13
2023-12-09T01:01:39.654Z,99709.16
2023-12-09T01:04:09.792Z,99710.44
2023-12-09T01:06:43.821Z,99708.06
2023-12-09T01:09:12.183Z,99712.13
2023-12-09T01:11:41.754Z,99704.56
2023-12-09T01:14:09.977Z,99709.94
2023-12-09T01:16:38.244Z,99709.47
2023-12-09T01:19:06.433Z,99704.56
2023-12-09T01:21:36.388Z,99710.63
2023-12-09T01:24:06.051Z,99706.38
2023-12-09T01:26:34.481Z,99699.22
2023-12-09T01:29:04.514Z,99698.75
2023-12-09T01:31:34.312Z,99696.34
2023-12-09T01:34:02.759Z,99692.47
2023-12-09T01:36:31.271Z,99687.72
2023-12-09T01:39:01.264Z,99688.31
2023-12-09T01:41:30.163Z,99684.84
2023-12-09T01:43:58.485Z,99690.91
2023-12-09T01:46:26.838Z,99681.97
2023-12-09T01:48:55.425Z,99686.03
2023-12-09T01:51:24.304Z,99676.81
2023-12-09T01:53:53.249Z,99676.81
2023-12-09T01:56:24.494Z,99682.25
2023-12-09T01:58:53.601Z,99671.44
2023-12-09T02:01:24.857Z,99677.19
2023-12-09T02:03:54.044Z,99670.06
2023-12-09T02:06:22.910Z,99670.06
2023-12-09T02:08:51.770Z,99671.84
2023-12-09T02:11:33.051Z,99664.91
2023-12-09T02:14:08.484Z,99667.38
2023-12-09T02:16:44.090Z,99668.88
2023-12-09T02:19:15.503Z,99675.50
2023-12-09T02:21:59.401Z,99674.72
2023-12-09T02:24:29.768Z,99664.19
2023-12-09T02:27:06.902Z,99666.84
2023-12-09T02:29:37.929Z,99665.94
2023-12-09T02:32:09.421Z,99678.91
2023-12-09T02:34:40.798Z,99673.16
2023-12-09T02:37:12.703Z,99679.06
2023-12-09T02:39:43.754Z,99674.31
2023-12-09T02:42:12.677Z,99679.06
2023-12-09T02:44:44.019Z,99679.44
2023-12-09T02:47:16.147Z,99686.56
2023-12-09T02:49:44.869Z,99690.41
2023-12-09T02:52:13.344Z,99692.84
2023-12-09T02:54:43.126Z,99684.44
2023-12-09T02:57:11.459Z,99681.81
2023-12-09T02:59:39.878Z,99678.44
2023-12-09T03:02:08.323Z,99689.41
2023-12-09T03:04:36.898Z,99688.63
2023-12-09T03:07:05.948Z,99688.34
2023-12-09T03:09:34.312Z,99694.16
2023-12-09T03:12:04.799Z,99691.00
2023-12-09T03:14:33.121Z,99683.25
2023-12-09T03:17:01.494Z,99689.72
2023-12-09T03:19:29.769Z,99692.72
2023-12-09T03:21:58.890Z,99692.31
2023-12-09T03:24:27.343Z,99695.03
2023-12-09T03:26:56.422Z,99689.50
2023-12-09T03:29:26.345Z,99701.56
2023-12-09T03:31:54.619Z,99698.06
2023-12-09T03:34:23.071Z,99687.09
2023-12-09T03:36:51.346Z,99689.50
2023-12-09T03:39:19.668Z,99688.41
2023-12-09T03:41:48.317Z,99690.28
2023-12-09T03:44:16.565Z,99686.19
2023-12-09T03:46:46.762Z,99694.81
2023-12-09T03:49:15.183Z,99690.69
2023-12-09T03:51:43.481Z,99696.78
2023-12-09T03:54:11.761Z,99698.16
2023-12-09T03:56:40.002Z,99689.25
2023-12-09T03:59:08.595Z,99692.31
2023-12-09T04:01:37.468Z,99701.19
2023-12-09T04:04:07.388Z,99697.72
2023-12-09T04:06:36.209Z,99695.97
2023-12-09T04:09:05.513Z,99696.88
2023-12-09T04:11:33.951Z,99700.72
2023-12-09T04:14:02.174Z,99711.44
2023-12-09T04:16:30.451Z,99701.88
2023-12-09T04:18:58.864Z,99703.84
2023-12-09T04:21:28.763Z,99706.75
2023-12-09T04:23:57.261Z,99703.97
2023-12-09T04:26:27.145Z,99705.28
2023-12-09T04:28:55.506Z,99709.31
2023-12-09T04:31:23.745Z,99704.88
2023-12-09T04:33:52.086Z,99708.75
2023-12-09T04:36:20.549Z,99706.31
2023-12-09T04:38:50.199Z,99713.22
2023-12-09T04:41:18.488Z,99704.41
2023-12-09T04:43:46.709Z,99715.78
2023-12-09T04:46:15.025Z,99720.59
2023-12-09T04:48:44.641Z,99710.16
2023-12-09T04:51:13.158Z,99715.13
2023-12-09T04:53:41.917Z,99719.22
2023-12-09T04:56:12.359Z,99723.63
2023-12-09T04:58:40.676Z,99727.31
2023-12-09T05:01:09.881Z,99723.06
2023-12-09T05:03:38.310Z,99719.69
2023-12-09T05:06:07.256Z,99728.56
2023-12-09T05:08:35.552Z,99733.69
2023-12-09T05:11:03.846Z,99729.19
2023-12-09T05:13:33.526Z,99730.56
2023-12-09T05:16:01.676Z,99729.78
2023-12-09T05:18:30.490Z,99723.41
2023-12-09T05:20:58.815Z,99737.69
2023-12-09T05:23:27.161Z,99737.94
2023-12-09T05:25:55.869Z,99734.31
2023-12-09T05:28:24.300Z,99734.53
2023-12-09T05:30:54.110Z,99726.63
2023-12-09T05:33:22.562Z,99737.53
2023-12-09T05:35:50.968Z,99741.09
2023-12-09T05:38:19.275Z,99747.78
2023-12-09T05:40:47.577Z,99753.13
2023-12-09T05:43:15.988Z,99756.84
2023-12-09T05:45:44.689Z,99754.91
2023-12-09T05:48:14.678Z,99755.13
2023-12-09T05:50:43.170Z,99752.13
2023-12-09T05:53:11.551Z,99747.78
2023-12-09T05:55:40.437Z,99747.06
2023-12-09T05:58:08.778Z,99748.47
2023-12-09T06:00:37.366Z,99744.22
2023-12-09T06:03:05.928Z,99750.03
2023-12-09T06:05:35.822Z,99742.34
2023-12-09T06:08:04.841Z,99740.19
2023-12-09T06:10:42.758Z,99745.47
2023-12-09T06:13:11.266Z,99747.13
2023-12-09T06:15:41.852Z,99753.44
2023-12-09T06:18:10.845Z,99762.56
2023-12-09T06:20:40.653Z,99768.88
2023-12-09T06:23:08.897Z,99766.59
2023-12-09T06:25:37.198Z,99777.28
2023-12-09T06:28:06.037Z,99782.19
2023-12-09T06:30:34.791Z,99783.78
2023-12-09T06:33:03.387Z,99791.28
2023-12-09T06:35:31.824Z,99786.56
2023-12-09T06:38:01.568Z,99792.69
2023-12-09T06:40:29.833Z,99792.78
2023-12-09T06:42:58.260Z,99795.25
2023-12-09T06:45:26.690Z,99799.09
2023-12-09T06:47:56.520Z,99802.66
2023-12-09T06:50:24.885Z,99797.78
2023-12-09T06:52:53.224Z,99800.94
2023-12-09T06:55:22.971Z,99799.88
2023-12-09T06:57:51.172Z,99810.06
2023-12-09T07:00:20.163Z,99815.75
2023-12-09T07:02:56.704Z,99815.56
2023-12-09T07:05:28.852Z,99816.44
2023-12-09T07:07:57.722Z,99821.56
2023-12-09T07:10:27.463Z,99823.19
2023-12-09T07:12:56.037Z,99817.56
2023-12-09T07:15:24.333Z,99818.88
2023-12-09T07:17:52.727Z,99819.50
2023-12-09T07:20:21.118Z,99818.59
2023-12-09T07:22:49.463Z,99824.03
2023-12-09T07:25:17.822Z,99825.09
2023-12-09T07:27:49.488Z,99822.31
2023-12-09T07:30:18.050Z,99832.00
2023-12-09T07:32:48.430Z,99827.97
2023-12-09T07:35:18.305Z,99821.31
2023-12-09T07:37:48.301Z,99824.78
2023-12-09T07:40:17.398Z,99816.72
2023-12-09T07:42:48.112Z,99816.94
2023-12-09T07:45:16.858Z,99812.66
2023-12-09T07:47:45.218Z,99815.41
2023-12-09T07:50:13.675Z,99823.69
2023-12-09T07:52:42.232Z,99824.72
2023-12-09T07:55:10.838Z,99823.63
2023-12-09T07:57:39.231Z,99818.28
2023-12-09T08:00:10.753Z,99828.25
2023-12-09T08:02:40.138Z,99825.88
2023-12-09T08:05:09.202Z,99827.25
2023-12-09T08:07:38.019Z,99823.69
2023-12-09T08:10:07.855Z,99820.69
2023-12-09T08:12:36.186Z,99830.25
2023-12-09T08:15:04.869Z,99829.41
2023-12-09T08:17:34.762Z,99833.22
2023-12-09T08:20:07.211Z,99824.16
2023-12-09T08:22:35.563Z,99826.81
2023-12-09T08:25:05.280Z,99827.97
2023-12-09T08:27:33.593Z,99825.69
2023-12-09T08:30:01.881Z,99829.38
2023-12-09T08:32:30.423Z,99827.72
2023-12-09T08:35:07.405Z,99830.81
2023-12-09T08:37:38.457Z,99827.50
2023-12-09T08:40:12.421Z,99822.19
2023-12-09T08:42:41.554Z,99821.97
2023-12-09T08:45:12.247Z,99827.34
2023-12-09T08:47:44.859Z,99820.66
2023-12-09T08:52:47.364Z,99812.13
2023-12-09T08:55:16.800Z,99813.34
2023-12-09T08:57:45.132Z,99808.09
2023-12-09T09:00:15.537Z,99799.91
2023-12-09T09:02:43.873Z,99795.81
2023-12-09T09:05:14.518Z,99801.69
2023-12-09T09:07:47.189Z,99792.25
2023-12-09T09:10:18.400Z,99783.69
2023-12-09T09:12:48.338Z,99782.03
2023-12-09T09:15:18.316Z,99789.97
2023-12-09T09:17:46.596Z,99776.41
2023-12-09T09:20:15.033Z,99772.56
2023-12-09T09:22:46.302Z,99773.53
2023-12-09T09:25:18.609Z,99776.59
2023-12-09T09:27:49.557Z,99766.66
2023-12-09T09:30:21.607Z,99770.03
2023-12-09T09:32:50.166Z,99769.31
2023-12-09T09:35:18.510Z,99760.94
2023-12-09T09:37:46.769Z,99762.50
2023-12-09T09:40:18.123Z,99759.97
2023-12-09T09:42:52.784Z,99763.34
2023-12-09T09:45:28.183Z,99759.56
2023-12-09T09:48:04.222Z,99745.72
2023-12-09T09:50:37.955Z,99752.66
2023-12-09T09:53:10.111Z,99750.03
2023-12-09T09:55:42.918Z,99750.50
2023-12-09T09:58:12.181Z,99742.13
2023-12-09T10:00:41.208Z,99739.13
2023-12-09T10:03:10.983Z,99737.09
2023-12-09T10:05:40.247Z,99735.16
2023-12-09T10:08:08.572Z,99734.31
2023-12-09T10:10:37.453Z,99726.75
2023-12-09T10:13:07.310Z,99719.66
2023-12-09T10:15:35.624Z,99715.69
2023-12-09T10:18:06.956Z,99712.53
2023-12-09T10:20:37.190Z,99709.59
2023-12-09T10:23:09.700Z,99707.25
2023-12-09T10:25:38.091Z,99709.63
2023-12-09T10:28:10.201Z,99699.97
2023-12-09T10:30:41.085Z,99691.59
2023-12-09T10:33:10.970Z,99686.84
2023-12-09T10:35:39.929Z,99687.50
2023-12-09T10:38:08.257Z,99691.47
2023-12-09T10:40:36.644Z,99690.53
2023-12-09T10:43:08.347Z,99698.59
2023-12-09T10:45:38.340Z,99693.38
2023-12-09T10:48:08.489Z,99685.00
2023-12-09T10:50:38.972Z,99688.81
2023-12-09T10:53:07.703Z,99683.94
2023-12-09T10:55:35.985Z,99688.19
2023-12-09T10:58:06.929Z,99685.16
2023-12-09T11:00:38.061Z,99679.00
2023-12-09T11:03:09.586Z,99675.38
2023-12-09T11:05:46.664Z,99672.81
2023-12-09T11:08:16.972Z,99672.19
2023-12-09T11:10:45.557Z,99677.56
2023-12-09T11:13:15.892Z,99664.44
2023-12-09T11:15:44.570Z,99671.88
2023-12-09T11:18:19.055Z,99661.56
2023-12-09T11:20:48.010Z,99667.41
2023-12-09T11:23:16.553Z,99671.38
2023-12-09T11:25:45.918Z,99668.38
2023-12-09T11:28:14.988Z,99677.84
2023-12-09T11:30:46.125Z,99667.41
2023-12-09T11:33:17.758Z,99660.41
2023-12-09T11:35:47.641Z,99663.22
2023-12-09T11:38:17.718Z,99656.88
2023-12-09T11:40:47.626Z,99653.28
2023-12-09T11:43:19.203Z,99652.31
2023-12-09T11:45:49.101Z,99646.44
2023-12-09T11:48:20.001Z,99645.63
2023-12-09T11:50:48.458Z,99637.69
2023-12-09T11:53:16.769Z,99644.16
2023-12-09T11:55:45.465Z,99636.28
2023-12-09T11:58:13.721Z,99640.06
2023-12-09T12:00:42.111Z,99645.91
2023-12-09T12:03:10.457Z,99643.56
2023-12-09T12:05:40.675Z,99641.16
2023-12-09T12:08:09.973Z,99640.19
2023-12-09T12:10:38.637Z,99634.94
2023-12-09T12:13:07.457Z,99632.91
2023-12-09T12:15:36.520Z,99627.16
2023-12-09T12:18:05.166Z,99624.63
2023-12-09T12:20:34.090Z,99625.13
2023-12-09T12:23:05.305Z,99620.84
2023-12-09T12:25:34.075Z,99618.28
2023-12-09T12:28:02.462Z,99620.16
2023-12-09T12:30:32.468Z,99614.59
2023-12-09T12:33:04.915Z,99612.09
2023-12-09T12:35:35.018Z,99608.09
2023-12-09T12:38:05.622Z,99606.94
2023-12-09T12:40:34.156Z,99601.88
2023-12-09T12:43:06.217Z,99605.97
2023-12-09T12:45:35.022Z,99605.97
2023-12-09T12:48:03.540Z,99611.59
2023-12-09T12:50:32.065Z,99609.53
2023-12-09T12:53:00.718Z,99606.38
2023-12-09T12:55:30.634Z,99592.25
2023-12-09T12:57:59.247Z,99603.56
2023-12-09T13:00:28.392Z,99596.97
2023-12-09T13:02:57.277Z,99596.19
2023-12-09T13:05:25.811Z,99591.47
2023-12-09T13:07:54.543Z,99597.47
2023-12-09T13:10:24.142Z,99594.34
2023-12-09T13:12:56.505Z,99601.78
2023-12-09T13:15:25.128Z,99593.78
2023-12-09T13:17:53.674Z,99596.50
2023-12-09T13:20:22.420Z,99601.53
2023-12-09T13:22:50.955Z,99605.06
2023-12-09T13:25:19.371Z,99602.91
2023-12-09T13:27:47.924Z,99596.34
2023-12-09T13:30:20.928Z,99600.88
2023-12-09T13:32:49.435Z,99604.41
2023-12-09T13:35:19.601Z,99608.13
2023-12-09T13:37:48.268Z,99606.19
2023-12-09T13:40:17.141Z,99613.19
2023-12-09T13:42:45.593Z,99619.97
2023-12-09T13:45:14.792Z,99613.81
2023-12-09T13:47:45.885Z,99614.69
2023-12-09T13:50:14.231Z,99617.72
2023-12-09T13:52:42.816Z,99618.13
2023-12-09T13:55:11.515Z,99618.94
2023-12-09T13:57:39.919Z,99614.03
2023-12-09T14:00:12.278Z,99619.94
2023-12-09T14:02:41.599Z,99627.19
2023-12-09T14:05:15.253Z,99618.81
2023-12-09T14:07:44.726Z,99626.94
2023-12-09T14:10:14.536Z,99627.59
2023-12-09T14:12:45.675Z,99625.81
2023-12-09T14:15:14.428Z,99623.59
2023-12-09T14:17:44.870Z,99617.28
2023-12-09T14:20:17.205Z,99625.88
2023-12-09T14:22:47.070Z,99628.75
2023-12-09T14:25:15.983Z,99636.22
2023-12-09T14:27:44.916Z,99624.03
2023-12-09T14:30:14.161Z,99626.09
2023-12-09T14:32:46.169Z,99628.81
2023-12-09T14:35:17.312Z,99624.72
2023-12-09T14:37:49.633Z,99631.16
2023-12-09T14:40:18.392Z,99632.28
2023-12-09T14:42:46.949Z,99633.06
2023-12-09T14:45:15.731Z,99631.63
2023-12-09T14:47:53.802Z,99630.53
2023-12-09T14:50:36.487Z,99633.69
2023-12-09T14:53:24.883Z,99638.41
2023-12-09T14:55:55.262Z,99636.22
2023-12-09T14:58:23.922Z,99638.91
2023-12-09T15:00:52.423Z,99633.03
2023-12-09T15:03:21.121Z,99632.41
2023-12-09T15:05:51.200Z,99630.63
2023-12-09T15:08:20.087Z,99631.09
2023-12-09T15:10:48.381Z,99635.50
2023-12-09T15:13:16.647Z,99633.28
2023-12-09T15:15:44.972Z,99636.59
2023-12-09T15:18:14.040Z,99635.97
2023-12-09T15:20:42.877Z,99642.09
2023-12-09T15:23:12.655Z,99644.13
2023-12-09T15:25:40.971Z,99654.72
2023-12-09T15:28:09.340Z,99658.59
2023-12-09T15:30:37.874Z,99657.16
2023-12-09T15:33:13.738Z,99653.81
2023-12-09T15:35:42.757Z,99661.53
2023-12-09T15:38:12.591Z,99661.81
2023-12-09T15:40:41.245Z,99664.13
2023-12-09T15:43:09.494Z,99672.63
2023-12-09T15:45:37.859Z,99665.00
2023-12-09T15:48:09.037Z,99662.72
2023-12-09T15:50:37.546Z,99664.81
2023-12-09T15:53:07.047Z,99667.94
2023-12-09T15:55:37.166Z,99666.47
2023-12-09T15:58:05.690Z,99674.31
2023-12-09T16:00:34.804Z,99677.44
2023-12-09T16:03:03.328Z,99676.44
2023-12-09T16:05:31.726Z,99677.66
2023-12-09T16:08:02.267Z,99682.06
2023-12-09T16:10:30.910Z,99688.31
2023-12-09T16:13:01.510Z,99694.47
2023-12-09T16:15:29.847Z,99693.69
2023-12-09T16:17:58.501Z,99682.78
2023-12-09T16:20:27.634Z,99688.25
2023-12-09T16:22:56.583Z,99685.66
2023-12-09T16:25:30.069Z,99699.06
2023-12-09T16:27:59.168Z,99698.91
2023-12-09T16:30:30.305Z,99706.75
2023-12-09T16:32:58.800Z,99698.50
2023-12-09T16:35:27.362Z,99699.88
2023-12-09T16:37:56.293Z,99701.50
2023-12-09T16:40:25.053Z,99709.13
2023-12-09T16:42:53.539Z,99708.44
2023-12-09T16:45:22.244Z,99708.03
2023-12-09T16:47:52.656Z,99700.91
2023-12-09T16:50:21.267Z,99702.69
2023-12-09T16:52:50.172Z,99707.56
2023-12-09T16:55:21.393Z,99705.50
2023-12-09T16:57:50.827Z,99705.78
2023-12-09T17:00:20.388Z,99703.59
2023-12-09T17:02:48.850Z,99704.28
2023-12-09T17:05:18.816Z,99711.22
2023-12-09T17:07:47.930Z,99704.81
2023-12-09T17:10:16.319Z,99713.81
2023-12-09T17:12:44.692Z,99713.41
2023-12-09T17:15:17.664Z,99717.59
2023-12-09T17:17:47.283Z,99719.66
2023-12-09T17:20:16.024Z,99725.91
2023-12-09T17:22:45.875Z,99725.63
2023-12-09T17:25:15.002Z,99728.69
2023-12-09T17:27:46.282Z,99727.03
2023-12-09T17:30:17.556Z,99737.34
2023-12-09T17:32:46.345Z,99743.28
2023-12-09T17:35:14.753Z,99738.13
2023-12-09T17:37:43.324Z,99738.63
2023-12-09T17:40:14.347Z,99737.84
2023-12-09T17:42:42.678Z,99737.66
2023-12-09T17:45:12.049Z,99743.78
2023-12-09T17:47:40.524Z,99745.28
2023-12-09T17:50:09.331Z,99745.88
2023-12-09T17:52:38.366Z,99753.63
2023-12-09T17:55:10.240Z,99749.44
2023-12-09T17:57:40.541Z,99748.97
2023-12-09T18:00:11.605Z,99753.31
2023-12-09T18:02:40.845Z,99748.03
2023-12-09T18:05:10.058Z,99750.13
2023-12-09T18:07:38.504Z,99748.53
2023-12-09T18:10:08.537Z,99760.22
2023-12-09T18:12:36.980Z,99756.84
2023-12-09T18:15:08.425Z,99760.53
2023-12-09T18:17:39.629Z,99759.94
2023-12-09T18:20:08.966Z,99754.97
2023-12-09T18:22:37.322Z,99753.84
2023-12-09T18:25:06.629Z,99761.47
2023-12-09T18:27:36.333Z,99761.06
2023-12-09T18:30:06.996Z,99756.88
2023-12-09T18:32:39.861Z,99766.78
2023-12-09T18:35:12.418Z,99762.13
2023-12-09T18:37:58.664Z,99764.41
2023-12-09T18:40:27.774Z,99763.19
2023-12-09T18:42:57.186Z,99767.81
2023-12-09T18:45:27.162Z,99764.16
2023-12-09T18:47:55.878Z,99766.00
2023-12-09T18:50:24.316Z,99767.88
2023-12-09T18:52:56.934Z,99764.69
2023-12-09T18:55:25.352Z,99767.97
2023-12-09T18:57:54.069Z,99763.97
2023-12-09T19:00:23.780Z,99757.56
2023-12-09T19:02:55.942Z,99758.34
2023-12-09T19:05:24.545Z,99766.97
2023-12-09T19:07:52.905Z,99756.78
2023-12-09T19:10:21.244Z,99767.16
2023-12-09T19:12:49.758Z,99765.88
2023-12-09T19:15:20.180Z,99768.06
2023-12-09T19:17:48.756Z,99766.97
2023-12-09T19:20:18.589Z,99771.38
2023-12-09T19:22:46.996Z,99780.06
2023-12-09T19:25:16.435Z,99771.31
2023-12-09T19:27:45.401Z,99775.69
2023-12-09T19:30:15.656Z,99773.97
2023-12-09T19:32:43.964Z,99781.03
2023-12-09T19:35:12.715Z,99782.19
2023-12-09T19:37:45.804Z,99789.75
2023-12-09T19:40:14.740Z,99788.72
2023-12-09T19:42:43.542Z,99782.66
2023-12-09T19:45:12.391Z,99784.16
2023-12-09T19:47:40.833Z,99788.22
2023-12-09T19:50:09.980Z,99779.75
2023-12-09T19:52:38.567Z,99778.44
2023-12-09T19:55:09.336Z,99782.53
2023-12-09T19:57:37.893Z,99792.78
2023-12-09T20:00:08.706Z,99778.69
2023-12-09T20:02:37.284Z,99791.28
2023-12-09T20:05:07.121Z,99784.13
2023-12-09T20:07:35.949Z,99777.72
2023-12-09T20:10:04.542Z,99779.91
2023-12-09T20:12:34.337Z,99776.50
2023-12-09T20:15:04.272Z,99777.34
2023-12-09T20:17:32.524Z,99781.38
2023-12-09T20:20:00.925Z,99776.81
2023-12-09T20:22:29.667Z,99774.66
2023-12-09T20:24:58.503Z,99786.13
2023-12-09T20:27:26.800Z,99784.81
2023-12-09T20:29:56.695Z,99781.38
2023-12-09T20:32:26.072Z,99782.44
2023-12-09T20:34:58.596Z,99777.16
2023-12-09T20:37:30.351Z,99770.78
2023-12-09T20:40:01.408Z,99777.47
2023-12-09T20:42:30.019Z,99768.97
2023-12-09T20:45:03.314Z,99765.47
2023-12-09T20:47:31.724Z,99770.28
2023-12-09T20:50:00.180Z,99760.38
2023-12-09T20:52:29.010Z,99769.19
2023-12-09T20:54:57.605Z,99768.66
2023-12-09T20:57:25.923Z,99774.47
2023-12-09T20:59:54.385Z,99770.19
2023-12-09T21:02:25.492Z,99761.66
2023-12-09T21:04:54.991Z,99767.00
2023-12-09T21:07:23.892Z,99767.03
2023-12-09T21:09:52.706Z,99766.47
2023-12-09T21:12:21.226Z,99771.81
2023-12-09T21:14:49.562Z,99771.34
2023-12-09T21:17:17.998Z,99769.31
2023-12-09T21:19:47.773Z,99769.84
2023-12-09T21:22:16.249Z,99765.09
2023-12-09T21:24:44.537Z,99762.13
2023-12-09T21:27:12.997Z,99771.47
2023-12-09T21:29:41.380Z,99777.31
2023-12-09T21:32:10.603Z,99788.31
2023-12-09T21:34:38.911Z,99776.28
2023-12-09T21:37:08.890Z,99777.41
2023-12-09T21:39:38.248Z,99779.56
2023-12-09T21:42:08.726Z,99774.78
2023-12-09T21:44:37.289Z,99773.75
2023-12-09T21:47:06.080Z,99770.00
2023-12-09T21:49:34.546Z,99774.59
2023-12-09T21:52:02.842Z,99765.84
2023-12-09T21:54:32.625Z,99782.13
2023-12-09T21:57:01.167Z,99773.91
2023-12-09T21:59:30.086Z,99772.53
2023-12-09T22:02:00.968Z,99770.16
2023-12-09T22:04:29.568Z,99776.25
2023-12-09T22:06:58.016Z,99763.00
2023-12-09T22:09:26.746Z,99773.19
2023-12-09T22:11:56.698Z,99767.59
2023-12-09T22:14:25.285Z,99769.03
2023-12-09T22:16:54.694Z,99760.81
2023-12-09T22:19:23.121Z,99761.66
2023-12-09T22:21:53.122Z,99764.03
2023-12-09T22:24:21.476Z,99761.41
2023-12-09T22:26:49.848Z,99764.63
2023-12-09T22:29:22.032Z,99762.78
2023-12-09T22:31:50.335Z,99759.28
2023-12-09T22:34:18.862Z,99771.25
2023-12-09T22:36:48.159Z,99775.25
2023-12-09T22:39:17.396Z,99772.63
2023-12-09T22:41:45.846Z,99773.69
2023-12-09T22:44:14.378Z,99781.16
2023-12-09T22:46:44.058Z,99784.91
2023-12-09T22:49:12.566Z,99778.78
2023-12-09T22:51:41.082Z,99779.03
2023-12-09T22:54:09.821Z,99787.84
2023-12-09T22:56:38.080Z,99794.25
2023-12-09T22:59:06.496Z,99787.59
2023-12-09T23:01:36.118Z,99786.28
2023-12-09T23:04:06.436Z,99776.69
2023-12-09T23:06:34.765Z,99762.06
2023-12-09T23:09:03.458Z,99763.94
2023-12-09T23:11:31.804Z,99770.56
2023-12-09T23:14:00.156Z,99764.69
2023-12-09T23:16:28.657Z,99767.84
2023-12-09T23:18:57.980Z,99760.97
2023-12-09T23:21:27.910Z,99770.56
2023-12-09T23:23:56.320Z,99766.31
2023-12-09T23:26:24.702Z,99752.16
2023-12-09T23:28:52.993Z,99749.53
2023-12-09T23:31:28.692Z,99744.50
2023-12-09T23:34:04.395Z,99753.00
2023-12-09T23:36:34.200Z,99739.72
2023-12-09T23:39:02.544Z,99744.78
2023-12-09T23:41:31.698Z,99730.88
2023-12-09T23:44:00.091Z,99734.59
2023-12-09T23:46:29.467Z,99739.44
2023-12-09T23:48:59.554Z,99733.34
2023-12-09T23:51:28.020Z,99733.88
2023-12-09T23:53:57.949Z,99731.44
2023-12-09T23:56:26.300Z,99729.41
2023-12-09T23:58:54.617Z,99731.00
